sensor_id;sensor_type;location;lat;lon;timestamp;P1;durP1;ratioP1;P2;durP2;ratioP2
9789;SDS011;4934;50.852;8.098;2022-07-01T00:00:42;8.80;;;5.90;;
9789;SDS011;4934;50.852;8.098;2022-07-01T00:03:08;7.78;;;5.57;;
9789;SDS011;4934;50.852;8.098;2022-07-01T00:05:33;8.30;;;5.40;;
9789;SDS011;4934;50.852;8.098;2022-07-01T00:07:59;9.25;;;6.18;;
9789;SDS011;4934;50.852;8.098;2022-07-01T00:10:24;6.80;;;5.35;;
9789;SDS011;4934;50.852;8.098;2022-07-01T00:12:50;5.18;;;4.32;;
9789;SDS011;4934;50.852;8.098;2022-07-01T00:15:15;10.57;;;4.47;;
9789;SDS011;4934;50.852;8.098;2022-07-01T00:17:41;5.32;;;4.00;;
9789;SDS011;4934;50.852;8.098;2022-07-01T00:20:08;7.30;;;4.57;;
9789;SDS011;4934;50.852;8.098;2022-07-01T00:22:34;5.40;;;3.90;;
9789;SDS011;4934;50.852;8.098;2022-07-01T00:25:00;5.32;;;3.95;;
9789;SDS011;4934;50.852;8.098;2022-07-01T00:27:27;5.25;;;3.75;;
9789;SDS011;4934;50.852;8.098;2022-07-01T00:29:52;6.47;;;4.95;;
9789;SDS011;4934;50.852;8.098;2022-07-01T00:32:18;3.45;;;2.80;;
9789;SDS011;4934;50.852;8.098;2022-07-01T00:34:44;4.80;;;3.70;;
9789;SDS011;4934;50.852;8.098;2022-07-01T00:37:09;5.13;;;3.78;;
9789;SDS011;4934;50.852;8.098;2022-07-01T00:39:35;8.95;;;4.38;;
9789;SDS011;4934;50.852;8.098;2022-07-01T00:42:03;5.75;;;4.38;;
9789;SDS011;4934;50.852;8.098;2022-07-01T00:44:29;9.40;;;5.13;;
9789;SDS011;4934;50.852;8.098;2022-07-01T00:46:56;7.90;;;4.93;;
9789;SDS011;4934;50.852;8.098;2022-07-01T00:49:23;11.77;;;5.43;;
9789;SDS011;4934;50.852;8.098;2022-07-01T00:51:50;10.18;;;5.60;;
9789;SDS011;4934;50.852;8.098;2022-07-01T00:54:17;8.05;;;5.13;;
9789;SDS011;4934;50.852;8.098;2022-07-01T00:56:43;9.50;;;6.22;;
9789;SDS011;4934;50.852;8.098;2022-07-01T00:59:09;10.52;;;5.55;;
9789;SDS011;4934;50.852;8.098;2022-07-01T01:01:35;10.07;;;5.43;;
9789;SDS011;4934;50.852;8.098;2022-07-01T01:04:01;9.77;;;5.78;;
9789;SDS011;4934;50.852;8.098;2022-07-01T01:06:27;8.23;;;5.60;;
9789;SDS011;4934;50.852;8.098;2022-07-01T01:08:53;8.60;;;5.30;;
9789;SDS011;4934;50.852;8.098;2022-07-01T01:11:18;8.77;;;6.03;;
9789;SDS011;4934;50.852;8.098;2022-07-01T01:13:45;10.50;;;5.85;;
9789;SDS011;4934;50.852;8.098;2022-07-01T01:16:17;11.63;;;6.97;;
9789;SDS011;4934;50.852;8.098;2022-07-01T01:18:48;14.77;;;6.85;;
9789;SDS011;4934;50.852;8.098;2022-07-01T01:21:14;11.00;;;6.05;;
9789;SDS011;4934;50.852;8.098;2022-07-01T01:23:40;9.48;;;7.07;;
9789;SDS011;4934;50.852;8.098;2022-07-01T01:26:19;9.98;;;6.93;;
9789;SDS011;4934;50.852;8.098;2022-07-01T01:28:46;9.32;;;6.03;;
9789;SDS011;4934;50.852;8.098;2022-07-01T01:31:13;8.43;;;5.60;;
9789;SDS011;4934;50.852;8.098;2022-07-01T01:33:39;9.68;;;5.85;;
9789;SDS011;4934;50.852;8.098;2022-07-01T01:36:05;11.35;;;6.82;;
9789;SDS011;4934;50.852;8.098;2022-07-01T01:38:35;10.38;;;7.07;;
9789;SDS011;4934;50.852;8.098;2022-07-01T01:41:04;10.25;;;7.10;;
9789;SDS011;4934;50.852;8.098;2022-07-01T01:48:26;9.75;;;6.13;;
9789;SDS011;4934;50.852;8.098;2022-07-01T01:50:53;9.88;;;6.47;;
9789;SDS011;4934;50.852;8.098;2022-07-01T01:53:18;10.20;;;6.97;;
9789;SDS011;4934;50.852;8.098;2022-07-01T01:55:44;13.88;;;7.03;;
9789;SDS011;4934;50.852;8.098;2022-07-01T01:58:09;12.25;;;7.28;;
9789;SDS011;4934;50.852;8.098;2022-07-01T02:00:35;9.82;;;6.55;;
9789;SDS011;4934;50.852;8.098;2022-07-01T02:03:00;10.20;;;7.00;;
9789;SDS011;4934;50.852;8.098;2022-07-01T02:05:26;10.63;;;7.53;;
9789;SDS011;4934;50.852;8.098;2022-07-01T02:07:52;8.75;;;6.85;;
9789;SDS011;4934;50.852;8.098;2022-07-01T02:10:17;10.20;;;6.47;;
9789;SDS011;4934;50.852;8.098;2022-07-01T02:12:43;9.48;;;6.22;;
9789;SDS011;4934;50.852;8.098;2022-07-01T02:15:08;12.18;;;6.55;;
9789;SDS011;4934;50.852;8.098;2022-07-01T02:17:35;8.73;;;5.93;;
9789;SDS011;4934;50.852;8.098;2022-07-01T02:20:00;12.98;;;6.30;;
9789;SDS011;4934;50.852;8.098;2022-07-01T02:22:26;10.32;;;6.65;;
9789;SDS011;4934;50.852;8.098;2022-07-01T02:24:51;9.25;;;6.53;;
9789;SDS011;4934;50.852;8.098;2022-07-01T02:27:17;10.75;;;6.65;;
9789;SDS011;4934;50.852;8.098;2022-07-01T02:29:43;8.32;;;5.75;;
9789;SDS011;4934;50.852;8.098;2022-07-01T02:32:09;10.20;;;6.18;;
9789;SDS011;4934;50.852;8.098;2022-07-01T02:34:35;9.00;;;5.47;;
9789;SDS011;4934;50.852;8.098;2022-07-01T02:37:00;9.07;;;5.65;;
9789;SDS011;4934;50.852;8.098;2022-07-01T02:39:26;7.32;;;4.97;;
9789;SDS011;4934;50.852;8.098;2022-07-01T02:41:51;9.48;;;6.40;;
9789;SDS011;4934;50.852;8.098;2022-07-01T02:44:36;10.45;;;5.47;;
9789;SDS011;4934;50.852;8.098;2022-07-01T02:47:01;9.25;;;4.78;;
9789;SDS011;4934;50.852;8.098;2022-07-01T02:49:27;8.07;;;4.60;;
9789;SDS011;4934;50.852;8.098;2022-07-01T02:51:53;7.78;;;4.30;;
9789;SDS011;4934;50.852;8.098;2022-07-01T02:54:18;8.30;;;4.00;;
9789;SDS011;4934;50.852;8.098;2022-07-01T02:56:44;5.72;;;3.70;;
9789;SDS011;4934;50.852;8.098;2022-07-01T02:59:10;5.97;;;4.18;;
9789;SDS011;4934;50.852;8.098;2022-07-01T03:01:36;5.22;;;3.80;;
9789;SDS011;4934;50.852;8.098;2022-07-01T03:04:02;5.03;;;3.63;;
9789;SDS011;4934;50.852;8.098;2022-07-01T03:06:27;6.80;;;4.05;;
9789;SDS011;4934;50.852;8.098;2022-07-01T03:08:53;8.18;;;4.07;;
9789;SDS011;4934;50.852;8.098;2022-07-01T03:11:18;9.30;;;4.28;;
9789;SDS011;4934;50.852;8.098;2022-07-01T03:13:44;5.47;;;3.67;;
9789;SDS011;4934;50.852;8.098;2022-07-01T03:16:10;8.80;;;5.10;;
9789;SDS011;4934;50.852;8.098;2022-07-01T03:18:35;8.18;;;4.25;;
9789;SDS011;4934;50.852;8.098;2022-07-01T03:21:01;5.75;;;3.80;;
9789;SDS011;4934;50.852;8.098;2022-07-01T03:23:26;5.40;;;3.50;;
9789;SDS011;4934;50.852;8.098;2022-07-01T03:25:52;5.57;;;3.60;;
9789;SDS011;4934;50.852;8.098;2022-07-01T03:28:18;6.18;;;4.13;;
9789;SDS011;4934;50.852;8.098;2022-07-01T03:30:43;5.95;;;3.78;;
9789;SDS011;4934;50.852;8.098;2022-07-01T03:33:09;6.20;;;3.47;;
9789;SDS011;4934;50.852;8.098;2022-07-01T03:35:34;5.90;;;3.80;;
9789;SDS011;4934;50.852;8.098;2022-07-01T03:38:00;7.88;;;3.80;;
9789;SDS011;4934;50.852;8.098;2022-07-01T03:40:26;8.40;;;4.88;;
9789;SDS011;4934;50.852;8.098;2022-07-01T03:42:52;7.53;;;4.68;;
9789;SDS011;4934;50.852;8.098;2022-07-01T03:45:17;10.32;;;5.20;;
9789;SDS011;4934;50.852;8.098;2022-07-01T03:47:49;7.03;;;4.15;;
9789;SDS011;4934;50.852;8.098;2022-07-01T03:50:16;9.00;;;4.63;;
9789;SDS011;4934;50.852;8.098;2022-07-01T03:52:42;8.30;;;4.72;;
9789;SDS011;4934;50.852;8.098;2022-07-01T03:55:08;8.07;;;4.03;;
9789;SDS011;4934;50.852;8.098;2022-07-01T03:57:35;11.38;;;5.88;;
9789;SDS011;4934;50.852;8.098;2022-07-01T04:00:01;7.43;;;4.85;;
9789;SDS011;4934;50.852;8.098;2022-07-01T04:02:26;9.07;;;4.88;;
9789;SDS011;4934;50.852;8.098;2022-07-01T04:04:52;10.35;;;5.28;;
9789;SDS011;4934;50.852;8.098;2022-07-01T04:07:17;10.93;;;5.32;;
9789;SDS011;4934;50.852;8.098;2022-07-01T04:09:44;11.90;;;5.47;;
9789;SDS011;4934;50.852;8.098;2022-07-01T04:12:09;12.90;;;6.15;;
9789;SDS011;4934;50.852;8.098;2022-07-01T04:14:37;9.95;;;6.63;;
9789;SDS011;4934;50.852;8.098;2022-07-01T04:17:03;10.43;;;5.95;;
9789;SDS011;4934;50.852;8.098;2022-07-01T04:19:29;13.85;;;6.38;;
9789;SDS011;4934;50.852;8.098;2022-07-01T04:21:55;13.68;;;6.13;;
9789;SDS011;4934;50.852;8.098;2022-07-01T04:24:39;8.48;;;5.65;;
9789;SDS011;4934;50.852;8.098;2022-07-01T04:27:04;11.07;;;6.03;;
9789;SDS011;4934;50.852;8.098;2022-07-01T04:29:30;9.32;;;5.80;;
9789;SDS011;4934;50.852;8.098;2022-07-01T04:31:56;12.07;;;5.80;;
9789;SDS011;4934;50.852;8.098;2022-07-01T04:34:22;10.80;;;6.07;;
9789;SDS011;4934;50.852;8.098;2022-07-01T04:36:48;6.53;;;4.55;;
9789;SDS011;4934;50.852;8.098;2022-07-01T04:39:14;8.52;;;5.07;;
9789;SDS011;4934;50.852;8.098;2022-07-01T04:41:39;9.38;;;4.40;;
9789;SDS011;4934;50.852;8.098;2022-07-01T04:44:23;7.05;;;4.30;;
9789;SDS011;4934;50.852;8.098;2022-07-01T04:46:50;11.88;;;4.47;;
9789;SDS011;4934;50.852;8.098;2022-07-01T04:49:15;8.48;;;4.40;;
9789;SDS011;4934;50.852;8.098;2022-07-01T04:51:41;8.60;;;3.70;;
9789;SDS011;4934;50.852;8.098;2022-07-01T04:54:07;7.53;;;3.78;;
9789;SDS011;4934;50.852;8.098;2022-07-01T04:56:34;6.93;;;3.38;;
9789;SDS011;4934;50.852;8.098;2022-07-01T04:59:00;5.88;;;3.72;;
9789;SDS011;4934;50.852;8.098;2022-07-01T05:01:26;5.25;;;3.10;;
9789;SDS011;4934;50.852;8.098;2022-07-01T05:03:53;6.30;;;3.15;;
9789;SDS011;4934;50.852;8.098;2022-07-01T05:06:20;7.57;;;4.95;;
9789;SDS011;4934;50.852;8.098;2022-07-01T05:08:46;5.70;;;3.08;;
9789;SDS011;4934;50.852;8.098;2022-07-01T05:11:11;8.07;;;3.50;;
9789;SDS011;4934;50.852;8.098;2022-07-01T05:13:37;7.20;;;3.67;;
9789;SDS011;4934;50.852;8.098;2022-07-01T05:16:03;6.13;;;3.33;;
9789;SDS011;4934;50.852;8.098;2022-07-01T05:18:30;6.53;;;3.60;;
9789;SDS011;4934;50.852;8.098;2022-07-01T05:21:14;6.68;;;3.20;;
9789;SDS011;4934;50.852;8.098;2022-07-01T05:23:58;5.00;;;2.97;;
9789;SDS011;4934;50.852;8.098;2022-07-01T05:26:24;6.40;;;2.70;;
9789;SDS011;4934;50.852;8.098;2022-07-01T05:28:51;5.18;;;3.30;;
9789;SDS011;4934;50.852;8.098;2022-07-01T05:31:18;3.60;;;2.63;;
9789;SDS011;4934;50.852;8.098;2022-07-01T05:33:43;5.93;;;2.70;;
9789;SDS011;4934;50.852;8.098;2022-07-01T05:36:09;3.50;;;2.35;;
9789;SDS011;4934;50.852;8.098;2022-07-01T05:38:35;4.10;;;2.20;;
9789;SDS011;4934;50.852;8.098;2022-07-01T05:41:01;5.45;;;2.40;;
9789;SDS011;4934;50.852;8.098;2022-07-01T05:43:26;4.18;;;2.33;;
9789;SDS011;4934;50.852;8.098;2022-07-01T05:45:52;6.20;;;2.42;;
9789;SDS011;4934;50.852;8.098;2022-07-01T05:48:18;8.55;;;2.50;;
9789;SDS011;4934;50.852;8.098;2022-07-01T05:50:43;5.10;;;2.33;;
9789;SDS011;4934;50.852;8.098;2022-07-01T05:53:09;3.00;;;2.00;;
9789;SDS011;4934;50.852;8.098;2022-07-01T05:55:34;2.60;;;1.83;;
9789;SDS011;4934;50.852;8.098;2022-07-01T05:58:00;5.03;;;2.60;;
9789;SDS011;4934;50.852;8.098;2022-07-01T06:00:26;4.47;;;2.42;;
9789;SDS011;4934;50.852;8.098;2022-07-01T06:02:53;4.93;;;2.30;;
9789;SDS011;4934;50.852;8.098;2022-07-01T06:05:18;7.00;;;2.75;;
9789;SDS011;4934;50.852;8.098;2022-07-01T06:07:44;6.10;;;2.50;;
9789;SDS011;4934;50.852;8.098;2022-07-01T06:10:10;4.43;;;2.50;;
9789;SDS011;4934;50.852;8.098;2022-07-01T06:12:36;6.90;;;2.63;;
9789;SDS011;4934;50.852;8.098;2022-07-01T06:15:03;2.88;;;2.22;;
9789;SDS011;4934;50.852;8.098;2022-07-01T06:17:30;4.97;;;2.42;;
9789;SDS011;4934;50.852;8.098;2022-07-01T06:19:56;7.25;;;2.47;;
9789;SDS011;4934;50.852;8.098;2022-07-01T06:22:21;4.70;;;2.92;;
9789;SDS011;4934;50.852;8.098;2022-07-01T06:24:47;5.90;;;3.20;;
9789;SDS011;4934;50.852;8.098;2022-07-01T06:27:13;6.53;;;3.10;;
9789;SDS011;4934;50.852;8.098;2022-07-01T06:29:39;5.40;;;2.92;;
9789;SDS011;4934;50.852;8.098;2022-07-01T06:32:05;5.05;;;2.92;;
9789;SDS011;4934;50.852;8.098;2022-07-01T06:34:31;5.00;;;2.78;;
9789;SDS011;4934;50.852;8.098;2022-07-01T06:36:57;6.72;;;2.80;;
9789;SDS011;4934;50.852;8.098;2022-07-01T06:39:25;4.57;;;3.05;;
9789;SDS011;4934;50.852;8.098;2022-07-01T06:41:51;4.50;;;2.47;;
9789;SDS011;4934;50.852;8.098;2022-07-01T06:44:17;6.50;;;2.75;;
9789;SDS011;4934;50.852;8.098;2022-07-01T06:46:43;3.67;;;2.10;;
9789;SDS011;4934;50.852;8.098;2022-07-01T06:49:09;4.90;;;1.85;;
9789;SDS011;4934;50.852;8.098;2022-07-01T06:51:34;6.35;;;1.98;;
9789;SDS011;4934;50.852;8.098;2022-07-01T06:54:00;2.75;;;2.00;;
9789;SDS011;4934;50.852;8.098;2022-07-01T06:56:26;3.15;;;1.92;;
9789;SDS011;4934;50.852;8.098;2022-07-01T06:58:51;3.92;;;1.85;;
9789;SDS011;4934;50.852;8.098;2022-07-01T07:01:17;3.08;;;1.98;;
9789;SDS011;4934;50.852;8.098;2022-07-01T07:03:43;4.25;;;1.88;;
9789;SDS011;4934;50.852;8.098;2022-07-01T07:06:08;6.40;;;1.77;;
9789;SDS011;4934;50.852;8.098;2022-07-01T07:08:34;4.35;;;1.77;;
9789;SDS011;4934;50.852;8.098;2022-07-01T07:11:00;5.20;;;2.35;;
9789;SDS011;4934;50.852;8.098;2022-07-01T07:13:27;5.80;;;2.33;;
9789;SDS011;4934;50.852;8.098;2022-07-01T07:15:53;4.28;;;2.00;;
9789;SDS011;4934;50.852;8.098;2022-07-01T07:18:19;4.13;;;2.20;;
9789;SDS011;4934;50.852;8.098;2022-07-01T07:20:45;2.38;;;2.05;;
9789;SDS011;4934;50.852;8.098;2022-07-01T07:23:12;3.00;;;2.20;;
9789;SDS011;4934;50.852;8.098;2022-07-01T07:25:39;5.22;;;2.30;;
9789;SDS011;4934;50.852;8.098;2022-07-01T07:28:04;2.85;;;2.38;;
9789;SDS011;4934;50.852;8.098;2022-07-01T07:30:30;5.80;;;2.00;;
9789;SDS011;4934;50.852;8.098;2022-07-01T07:32:56;2.70;;;2.25;;
9789;SDS011;4934;50.852;8.098;2022-07-01T07:35:21;2.92;;;1.65;;
9789;SDS011;4934;50.852;8.098;2022-07-01T07:37:47;5.78;;;2.33;;
9789;SDS011;4934;50.852;8.098;2022-07-01T07:40:13;3.67;;;2.10;;
9789;SDS011;4934;50.852;8.098;2022-07-01T07:42:43;6.97;;;2.33;;
9789;SDS011;4934;50.852;8.098;2022-07-01T07:45:13;4.88;;;2.53;;
9789;SDS011;4934;50.852;8.098;2022-07-01T07:47:43;2.55;;;1.85;;
9789;SDS011;4934;50.852;8.098;2022-07-01T07:50:10;4.95;;;2.00;;
9789;SDS011;4934;50.852;8.098;2022-07-01T07:52:36;4.35;;;2.40;;
9789;SDS011;4934;50.852;8.098;2022-07-01T07:55:02;3.60;;;2.20;;
9789;SDS011;4934;50.852;8.098;2022-07-01T07:57:29;5.55;;;2.65;;
9789;SDS011;4934;50.852;8.098;2022-07-01T07:59:56;6.75;;;2.58;;
9789;SDS011;4934;50.852;8.098;2022-07-01T08:02:21;5.70;;;2.22;;
9789;SDS011;4934;50.852;8.098;2022-07-01T08:04:49;5.97;;;2.22;;
9789;SDS011;4934;50.852;8.098;2022-07-01T08:07:15;6.70;;;2.60;;
9789;SDS011;4934;50.852;8.098;2022-07-01T08:09:40;8.52;;;3.55;;
9789;SDS011;4934;50.852;8.098;2022-07-01T08:12:10;3.47;;;2.25;;
9789;SDS011;4934;50.852;8.098;2022-07-01T08:14:36;3.83;;;1.98;;
9789;SDS011;4934;50.852;8.098;2022-07-01T08:17:02;5.40;;;2.33;;
9789;SDS011;4934;50.852;8.098;2022-07-01T08:19:28;6.22;;;2.25;;
9789;SDS011;4934;50.852;8.098;2022-07-01T08:21:54;3.13;;;2.00;;
9789;SDS011;4934;50.852;8.098;2022-07-01T08:24:19;3.35;;;1.92;;
9789;SDS011;4934;50.852;8.098;2022-07-01T08:26:45;6.78;;;2.30;;
9789;SDS011;4934;50.852;8.098;2022-07-01T08:29:10;2.40;;;2.03;;
9789;SDS011;4934;50.852;8.098;2022-07-01T08:31:36;3.58;;;2.03;;
9789;SDS011;4934;50.852;8.098;2022-07-01T08:34:01;5.00;;;2.60;;
9789;SDS011;4934;50.852;8.098;2022-07-01T08:36:27;4.38;;;1.90;;
9789;SDS011;4934;50.852;8.098;2022-07-01T08:38:53;5.88;;;1.98;;
9789;SDS011;4934;50.852;8.098;2022-07-01T08:41:18;3.10;;;1.92;;
9789;SDS011;4934;50.852;8.098;2022-07-01T08:43:45;7.25;;;2.40;;
9789;SDS011;4934;50.852;8.098;2022-07-01T08:46:11;6.00;;;2.10;;
9789;SDS011;4934;50.852;8.098;2022-07-01T08:48:37;5.55;;;2.05;;
9789;SDS011;4934;50.852;8.098;2022-07-01T08:51:10;4.60;;;2.05;;
9789;SDS011;4934;50.852;8.098;2022-07-01T08:53:36;9.77;;;1.90;;
9789;SDS011;4934;50.852;8.098;2022-07-01T08:56:02;9.77;;;2.30;;
9789;SDS011;4934;50.852;8.098;2022-07-01T08:58:49;5.97;;;1.73;;
9789;SDS011;4934;50.852;8.098;2022-07-01T09:01:17;3.85;;;2.10;;
9789;SDS011;4934;50.852;8.098;2022-07-01T09:03:45;4.57;;;1.83;;
9789;SDS011;4934;50.852;8.098;2022-07-01T09:06:16;4.50;;;1.80;;
9789;SDS011;4934;50.852;8.098;2022-07-01T09:08:43;5.32;;;1.95;;
9789;SDS011;4934;50.852;8.098;2022-07-01T09:11:14;2.85;;;1.98;;
9789;SDS011;4934;50.852;8.098;2022-07-01T09:13:41;3.45;;;1.83;;
9789;SDS011;4934;50.852;8.098;2022-07-01T09:16:15;4.47;;;1.83;;
9789;SDS011;4934;50.852;8.098;2022-07-01T09:19:01;5.45;;;1.77;;
9789;SDS011;4934;50.852;8.098;2022-07-01T09:21:28;4.40;;;1.90;;
9789;SDS011;4934;50.852;8.098;2022-07-01T09:23:55;5.68;;;2.05;;
9789;SDS011;4934;50.852;8.098;2022-07-01T09:26:21;5.40;;;1.85;;
9789;SDS011;4934;50.852;8.098;2022-07-01T09:28:54;5.82;;;1.70;;
9789;SDS011;4934;50.852;8.098;2022-07-01T09:31:20;3.80;;;1.90;;
9789;SDS011;4934;50.852;8.098;2022-07-01T09:33:47;2.38;;;1.58;;
9789;SDS011;4934;50.852;8.098;2022-07-01T09:36:31;2.67;;;1.85;;
9789;SDS011;4934;50.852;8.098;2022-07-01T09:38:56;8.13;;;2.00;;
9789;SDS011;4934;50.852;8.098;2022-07-01T09:41:26;5.05;;;2.17;;
9789;SDS011;4934;50.852;8.098;2022-07-01T09:43:52;4.28;;;1.77;;
9789;SDS011;4934;50.852;8.098;2022-07-01T09:46:18;3.00;;;1.77;;
9789;SDS011;4934;50.852;8.098;2022-07-01T09:48:44;3.97;;;1.73;;
9789;SDS011;4934;50.852;8.098;2022-07-01T09:51:15;3.10;;;1.70;;
9789;SDS011;4934;50.852;8.098;2022-07-01T09:53:42;5.85;;;1.50;;
9789;SDS011;4934;50.852;8.098;2022-07-01T09:56:08;5.00;;;1.50;;
9789;SDS011;4934;50.852;8.098;2022-07-01T09:58:36;7.15;;;1.58;;
9789;SDS011;4934;50.852;8.098;2022-07-01T10:01:04;2.83;;;1.60;;
9789;SDS011;4934;50.852;8.098;2022-07-01T10:03:30;4.30;;;1.33;;
9789;SDS011;4934;50.852;8.098;2022-07-01T10:06:08;3.53;;;1.10;;
9789;SDS011;4934;50.852;8.098;2022-07-01T10:09:02;3.28;;;2.25;;
9789;SDS011;4934;50.852;8.098;2022-07-01T10:11:48;1.98;;;1.23;;
9789;SDS011;4934;50.852;8.098;2022-07-01T10:14:27;5.35;;;1.10;;
9789;SDS011;4934;50.852;8.098;2022-07-01T10:16:55;2.58;;;1.40;;
9789;SDS011;4934;50.852;8.098;2022-07-01T10:21:51;1.83;;;1.17;;
9789;SDS011;4934;50.852;8.098;2022-07-01T10:24:19;4.50;;;1.10;;
9789;SDS011;4934;50.852;8.098;2022-07-01T10:26:45;3.40;;;1.35;;
9789;SDS011;4934;50.852;8.098;2022-07-01T10:29:27;4.07;;;1.27;;
9789;SDS011;4934;50.852;8.098;2022-07-01T10:31:54;2.95;;;1.30;;
9789;SDS011;4934;50.852;8.098;2022-07-01T10:34:24;3.58;;;1.52;;
9789;SDS011;4934;50.852;8.098;2022-07-01T10:37:02;3.65;;;1.35;;
9789;SDS011;4934;50.852;8.098;2022-07-01T10:39:29;5.57;;;1.27;;
9789;SDS011;4934;50.852;8.098;2022-07-01T10:41:56;1.88;;;1.10;;
9789;SDS011;4934;50.852;8.098;2022-07-01T10:44:24;1.83;;;1.30;;
9789;SDS011;4934;50.852;8.098;2022-07-01T10:47:02;3.60;;;1.20;;
9789;SDS011;4934;50.852;8.098;2022-07-01T10:49:51;11.73;;;2.50;;
9789;SDS011;4934;50.852;8.098;2022-07-01T10:52:15;2.72;;;0.95;;
9789;SDS011;4934;50.852;8.098;2022-07-01T11:02:27;4.32;;;1.30;;
9789;SDS011;4934;50.852;8.098;2022-07-01T11:04:58;4.00;;;0.93;;
9789;SDS011;4934;50.852;8.098;2022-07-01T11:07:24;3.60;;;1.00;;
9789;SDS011;4934;50.852;8.098;2022-07-01T11:09:51;3.17;;;0.80;;
9789;SDS011;4934;50.852;8.098;2022-07-01T11:12:17;2.08;;;0.80;;
9789;SDS011;4934;50.852;8.098;2022-07-01T11:14:44;2.03;;;0.90;;
9789;SDS011;4934;50.852;8.098;2022-07-01T11:17:10;1.95;;;1.00;;
9789;SDS011;4934;50.852;8.098;2022-07-01T11:19:36;2.25;;;1.05;;
9789;SDS011;4934;50.852;8.098;2022-07-01T11:22:02;1.73;;;1.00;;
9789;SDS011;4934;50.852;8.098;2022-07-01T11:24:30;2.63;;;1.05;;
9789;SDS011;4934;50.852;8.098;2022-07-01T11:27:05;3.47;;;1.10;;
9789;SDS011;4934;50.852;8.098;2022-07-01T11:29:32;1.23;;;0.90;;
9789;SDS011;4934;50.852;8.098;2022-07-01T11:31:58;4.32;;;0.88;;
9789;SDS011;4934;50.852;8.098;2022-07-01T11:34:26;1.65;;;1.00;;
9789;SDS011;4934;50.852;8.098;2022-07-01T11:36:53;5.75;;;0.98;;
9789;SDS011;4934;50.852;8.098;2022-07-01T11:39:38;2.00;;;0.73;;
9789;SDS011;4934;50.852;8.098;2022-07-01T11:42:06;1.63;;;0.85;;
9789;SDS011;4934;50.852;8.098;2022-07-01T11:44:34;2.75;;;0.70;;
9789;SDS011;4934;50.852;8.098;2022-07-01T11:47:05;0.95;;;0.68;;
9789;SDS011;4934;50.852;8.098;2022-07-01T11:49:31;4.60;;;0.88;;
9789;SDS011;4934;50.852;8.098;2022-07-01T11:52:04;3.50;;;0.90;;
9789;SDS011;4934;50.852;8.098;2022-07-01T11:54:33;3.17;;;0.98;;
9789;SDS011;4934;50.852;8.098;2022-07-01T11:57:11;1.52;;;0.80;;
9789;SDS011;4934;50.852;8.098;2022-07-01T11:59:41;2.33;;;0.90;;
9789;SDS011;4934;50.852;8.098;2022-07-01T12:02:08;2.38;;;0.70;;
9789;SDS011;4934;50.852;8.098;2022-07-01T12:04:36;3.03;;;0.80;;
9789;SDS011;4934;50.852;8.098;2022-07-01T12:07:02;4.25;;;1.00;;
9789;SDS011;4934;50.852;8.098;2022-07-01T12:09:28;1.25;;;0.80;;
9789;SDS011;4934;50.852;8.098;2022-07-01T12:11:54;1.90;;;0.77;;
9789;SDS011;4934;50.852;8.098;2022-07-01T12:14:23;1.88;;;1.00;;
9789;SDS011;4934;50.852;8.098;2022-07-01T12:16:52;1.92;;;0.68;;
9789;SDS011;4934;50.852;8.098;2022-07-01T12:19:18;3.93;;;0.63;;
9789;SDS011;4934;50.852;8.098;2022-07-01T12:22:05;2.00;;;0.70;;
9789;SDS011;4934;50.852;8.098;2022-07-01T12:29:25;1.92;;;0.75;;
9789;SDS011;4934;50.852;8.098;2022-07-01T12:31:56;3.55;;;0.90;;
9789;SDS011;4934;50.852;8.098;2022-07-01T12:34:27;1.05;;;0.85;;
9789;SDS011;4934;50.852;8.098;2022-07-01T12:37:12;6.70;;;0.88;;
9789;SDS011;4934;50.852;8.098;2022-07-01T12:39:49;1.83;;;0.73;;
9789;SDS011;4934;50.852;8.098;2022-07-01T12:42:27;3.15;;;1.00;;
9789;SDS011;4934;50.852;8.098;2022-07-01T12:45:04;1.65;;;0.90;;
9789;SDS011;4934;50.852;8.098;2022-07-01T12:47:36;1.20;;;0.70;;
9789;SDS011;4934;50.852;8.098;2022-07-01T12:53:02;3.63;;;0.82;;
9789;SDS011;4934;50.852;8.098;2022-07-01T12:55:33;2.83;;;0.60;;
9789;SDS011;4934;50.852;8.098;2022-07-01T12:58:00;2.13;;;0.63;;
9789;SDS011;4934;50.852;8.098;2022-07-01T13:00:28;1.33;;;0.60;;
9789;SDS011;4934;50.852;8.098;2022-07-01T13:02:55;1.95;;;0.50;;
9789;SDS011;4934;50.852;8.098;2022-07-01T13:05:23;1.75;;;0.60;;
9789;SDS011;4934;50.852;8.098;2022-07-01T13:07:49;2.83;;;0.85;;
9789;SDS011;4934;50.852;8.098;2022-07-01T13:10:15;2.35;;;0.77;;
9789;SDS011;4934;50.852;8.098;2022-07-01T13:12:42;4.07;;;0.60;;
9789;SDS011;4934;50.852;8.098;2022-07-01T13:15:09;1.73;;;0.70;;
9789;SDS011;4934;50.852;8.098;2022-07-01T13:17:36;2.80;;;0.60;;
9789;SDS011;4934;50.852;8.098;2022-07-01T13:20:02;0.80;;;0.55;;
9789;SDS011;4934;50.852;8.098;2022-07-01T13:22:28;1.92;;;0.77;;
9789;SDS011;4934;50.852;8.098;2022-07-01T13:24:53;0.75;;;0.55;;
9789;SDS011;4934;50.852;8.098;2022-07-01T13:27:19;3.08;;;0.65;;
9789;SDS011;4934;50.852;8.098;2022-07-01T13:29:45;2.33;;;0.70;;
9789;SDS011;4934;50.852;8.098;2022-07-01T13:32:11;0.63;;;0.47;;
9789;SDS011;4934;50.852;8.098;2022-07-01T13:34:36;1.00;;;0.57;;
9789;SDS011;4934;50.852;8.098;2022-07-01T13:37:02;2.00;;;0.47;;
9789;SDS011;4934;50.852;8.098;2022-07-01T13:39:31;0.60;;;0.40;;
9789;SDS011;4934;50.852;8.098;2022-07-01T13:41:57;2.13;;;0.60;;
9789;SDS011;4934;50.852;8.098;2022-07-01T13:44:22;1.25;;;0.68;;
9789;SDS011;4934;50.852;8.098;2022-07-01T13:46:48;2.72;;;0.60;;
9789;SDS011;4934;50.852;8.098;2022-07-01T13:49:14;0.68;;;0.55;;
9789;SDS011;4934;50.852;8.098;2022-07-01T13:51:40;0.88;;;0.40;;
9789;SDS011;4934;50.852;8.098;2022-07-01T13:54:06;2.90;;;0.65;;
9789;SDS011;4934;50.852;8.098;2022-07-01T13:56:31;0.63;;;0.50;;
9789;SDS011;4934;50.852;8.098;2022-07-01T13:58:57;1.48;;;0.55;;
9789;SDS011;4934;50.852;8.098;2022-07-01T14:01:22;3.58;;;0.88;;
9789;SDS011;4934;50.852;8.098;2022-07-01T14:03:48;1.95;;;0.50;;
9789;SDS011;4934;50.852;8.098;2022-07-01T14:06:15;2.72;;;0.57;;
9789;SDS011;4934;50.852;8.098;2022-07-01T14:08:41;1.52;;;0.68;;
9789;SDS011;4934;50.852;8.098;2022-07-01T14:11:07;2.85;;;1.60;;
9789;SDS011;4934;50.852;8.098;2022-07-01T14:13:32;4.95;;;0.70;;
9789;SDS011;4934;50.852;8.098;2022-07-01T14:16:01;1.02;;;0.50;;
9789;SDS011;4934;50.852;8.098;2022-07-01T14:18:27;1.33;;;0.70;;
9789;SDS011;4934;50.852;8.098;2022-07-01T14:20:53;1.10;;;0.68;;
9789;SDS011;4934;50.852;8.098;2022-07-01T14:23:18;2.17;;;0.70;;
9789;SDS011;4934;50.852;8.098;2022-07-01T14:25:44;1.65;;;0.70;;
9789;SDS011;4934;50.852;8.098;2022-07-01T14:28:10;3.20;;;0.73;;
9789;SDS011;4934;50.852;8.098;2022-07-01T14:30:36;0.50;;;0.50;;
9789;SDS011;4934;50.852;8.098;2022-07-01T14:33:02;1.88;;;0.50;;
9789;SDS011;4934;50.852;8.098;2022-07-01T14:35:28;1.38;;;0.52;;
9789;SDS011;4934;50.852;8.098;2022-07-01T14:37:54;1.25;;;0.60;;
9789;SDS011;4934;50.852;8.098;2022-07-01T14:40:20;1.70;;;0.60;;
9789;SDS011;4934;50.852;8.098;2022-07-01T14:42:45;3.75;;;0.93;;
9789;SDS011;4934;50.852;8.098;2022-07-01T14:45:11;1.90;;;0.70;;
9789;SDS011;4934;50.852;8.098;2022-07-01T14:47:42;1.65;;;0.60;;
9789;SDS011;4934;50.852;8.098;2022-07-01T14:50:08;2.45;;;0.70;;
9789;SDS011;4934;50.852;8.098;2022-07-01T14:52:35;4.22;;;0.60;;
9789;SDS011;4934;50.852;8.098;2022-07-01T14:55:01;0.73;;;0.60;;
9789;SDS011;4934;50.852;8.098;2022-07-01T14:57:27;1.13;;;0.60;;
9789;SDS011;4934;50.852;8.098;2022-07-01T14:59:53;0.93;;;0.50;;
9789;SDS011;4934;50.852;8.098;2022-07-01T15:02:19;1.25;;;0.60;;
9789;SDS011;4934;50.852;8.098;2022-07-01T15:04:45;4.78;;;0.60;;
9789;SDS011;4934;50.852;8.098;2022-07-01T15:07:11;2.95;;;0.60;;
9789;SDS011;4934;50.852;8.098;2022-07-01T15:09:37;0.80;;;0.50;;
9789;SDS011;4934;50.852;8.098;2022-07-01T15:12:03;1.65;;;0.70;;
9789;SDS011;4934;50.852;8.098;2022-07-01T15:14:29;2.60;;;0.75;;
9789;SDS011;4934;50.852;8.098;2022-07-01T15:16:55;4.05;;;0.70;;
9789;SDS011;4934;50.852;8.098;2022-07-01T15:19:21;1.00;;;0.60;;
9789;SDS011;4934;50.852;8.098;2022-07-01T15:21:46;2.10;;;0.60;;
9789;SDS011;4934;50.852;8.098;2022-07-01T15:24:12;3.13;;;0.40;;
9789;SDS011;4934;50.852;8.098;2022-07-01T15:26:38;4.20;;;0.70;;
9789;SDS011;4934;50.852;8.098;2022-07-01T15:29:03;4.35;;;0.73;;
9789;SDS011;4934;50.852;8.098;2022-07-01T15:31:29;3.50;;;0.60;;
9789;SDS011;4934;50.852;8.098;2022-07-01T15:33:55;1.35;;;0.60;;
9789;SDS011;4934;50.852;8.098;2022-07-01T15:36:21;1.50;;;0.50;;
9789;SDS011;4934;50.852;8.098;2022-07-01T15:38:46;0.70;;;0.60;;